Time;durP1;ratioP1;P1;durP2;ratioP2;P2;SDS_P1;SDS_P2;PMS_P1;PMS_P2;Temp;Humidity;BMP_temperature;BMP_pressure;BME280_temperature;BME280_humidity;BME280_pressure;Samples;Min_cycle;Max_cycle;Signal;HPM_P1;HPM_P2
2022/03/06 00:00:32;;;;;;;26.52;16.50;;;-0.40;99.90;;;;;;5087989;28;20036;-83
2022/03/06 00:02:57;;;;;;;30.80;16.48;;;-0.30;99.90;;;;;;5089432;28;20478;-82
2022/03/06 00:05:23;;;;;;;31.98;16.67;;;-0.20;99.90;;;;;;5073221;28;20032;-83
2022/03/06 00:07:48;;;;;;;26.02;15.88;;;-0.10;99.90;;;;;;5071890;28;20499;-82
2022/03/06 00:10:14;;;;;;;25.95;16.08;;;-0.10;99.90;;;;;;5072136;28;20126;-82
2022/03/06 00:12:40;;;;;;;23.92;14.43;;;0.00;99.90;;;;;;5072435;28;20530;-82
2022/03/06 00:15:06;;;;;;;26.27;15.70;;;0.00;99.90;;;;;;5073358;28;20044;-83
2022/03/06 00:17:32;;;;;;;27.90;15.63;;;0.10;99.90;;;;;;5073777;28;20040;-83
2022/03/06 00:19:57;;;;;;;24.52;14.57;;;0.30;99.90;;;;;;5072364;28;20051;-82
2022/03/06 00:22:23;;;;;;;24.30;14.38;;;0.30;99.90;;;;;;5073661;28;21037;-83
2022/03/06 00:24:48;;;;;;;34.75;15.52;;;0.40;99.90;;;;;;5077083;28;20546;-83
2022/03/06 00:27:14;;;;;;;26.08;13.50;;;0.40;99.90;;;;;;5077313;28;20055;-83
2022/03/06 00:29:40;;;;;;;22.83;14.13;;;0.50;99.90;;;;;;5077271;28;20048;-83
2022/03/06 00:32:06;;;;;;;20.27;11.88;;;0.50;99.90;;;;;;5077603;28;20052;-83
2022/03/06 00:34:32;;;;;;;23.65;13.77;;;0.60;99.90;;;;;;5077662;28;20491;-82
2022/03/06 00:36:58;;;;;;;21.35;12.82;;;0.60;99.90;;;;;;5077587;28;20052;-83
2022/03/06 00:39:23;;;;;;;26.33;12.13;;;0.70;99.90;;;;;;5077605;28;20037;-83
2022/03/06 00:41:49;;;;;;;22.20;12.50;;;0.70;99.90;;;;;;5076561;28;20045;-83
2022/03/06 00:44:15;;;;;;;23.02;13.60;;;0.70;99.90;;;;;;5076882;28;20050;-83
2022/03/06 00:46:40;;;;;;;18.63;11.15;;;0.80;99.90;;;;;;5076953;28;20380;-82
2022/03/06 00:49:06;;;;;;;20.23;10.73;;;0.80;99.90;;;;;;5077348;28;20495;-83
2022/03/06 00:51:31;;;;;;;19.35;10.85;;;0.80;99.90;;;;;;5076046;28;20066;-83
2022/03/06 00:53:57;;;;;;;19.58;11.55;;;0.80;99.90;;;;;;5092728;28;20055;-83
2022/03/06 00:56:22;;;;;;;19.33;10.63;;;0.90;99.90;;;;;;5059101;28;20048;-83
2022/03/06 00:58:48;;;;;;;18.63;11.05;;;0.90;99.90;;;;;;5076666;28;20120;-83
2022/03/06 01:01:14;;;;;;;21.48;10.57;;;0.90;99.90;;;;;;5076981;28;20082;-83
2022/03/06 01:03:40;;;;;;;24.98;11.65;;;0.90;99.90;;;;;;5075446;28;20509;-82
2022/03/06 01:06:05;;;;;;;16.50;10.27;;;0.80;99.90;;;;;;5076649;28;20153;-83
2022/03/06 01:08:31;;;;;;;19.25;9.55;;;0.80;99.90;;;;;;5077251;28;20482;-83
2022/03/06 01:10:56;;;;;;;21.60;11.23;;;1.20;99.90;;;;;;5075230;28;20110;-83
2022/03/06 01:13:23;;;;;;;19.75;11.23;;;0.80;99.90;;;;;;5075925;28;20138;-83
2022/03/06 01:15:48;;;;;;;16.33;10.32;;;0.80;99.90;;;;;;5076807;28;20046;-83
2022/03/06 01:18:14;;;;;;;17.25;9.98;;;0.80;99.90;;;;;;5075977;28;20041;-83
2022/03/06 01:20:40;;;;;;;25.65;11.93;;;0.70;99.90;;;;;;5076354;28;20052;-82
2022/03/06 01:23:07;;;;;;;22.92;10.55;;;0.70;99.90;;;;;;5075963;28;20045;-82
2022/03/06 01:25:33;;;;;;;20.95;10.32;;;0.70;99.90;;;;;;5076940;28;20076;-82
2022/03/06 01:27:59;;;;;;;17.27;10.90;;;0.70;99.90;;;;;;5077803;28;20044;-83
2022/03/06 01:30:25;;;;;;;15.35;9.50;;;0.70;99.90;;;;;;5080066;28;20112;-82
2022/03/06 01:32:51;;;;;;;14.90;8.95;;;0.80;99.90;;;;;;5079150;28;20447;-82
2022/03/06 01:35:18;;;;;;;15.18;8.95;;;0.80;99.90;;;;;;5078721;28;20124;-82
2022/03/06 01:37:43;;;;;;;18.27;10.38;;;0.80;99.90;;;;;;5079917;28;20514;-83
2022/03/06 01:40:10;;;;;;;18.13;10.38;;;0.80;99.90;;;;;;5077084;28;20128;-82
2022/03/06 01:42:44;;;;;;;15.18;8.85;;;0.80;99.90;;;;;;5076243;28;20166;-83
2022/03/06 01:45:10;;;;;;;19.85;10.32;;;0.80;99.90;;;;;;5076322;28;20059;-82
2022/03/06 01:47:40;;;;;;;17.33;9.60;;;0.80;99.90;;;;;;5076174;28;20145;-82
2022/03/06 01:50:09;;;;;;;19.05;9.73;;;0.90;99.90;;;;;;5076187;28;20511;-82
2022/03/06 01:52:35;;;;;;;15.93;8.73;;;0.90;99.90;;;;;;5076126;28;20048;-82
2022/03/06 01:55:01;;;;;;;17.35;8.35;;;1.40;99.90;;;;;;5075937;28;20037;-82
2022/03/06 01:57:29;;;;;;;17.60;8.68;;;1.10;99.90;;;;;;5074589;28;20057;-82
2022/03/06 01:59:54;;;;;;;13.40;8.48;;;1.40;99.90;;;;;;5075062;28;20048;-82
2022/03/06 02:02:20;;;;;;;18.95;9.88;;;1.20;99.90;;;;;;5074166;28;20070;-82
2022/03/06 02:04:46;;;;;;;13.10;7.45;;;1.20;99.90;;;;;;5075484;28;20025;-82
2022/03/06 02:07:11;;;;;;;17.55;9.45;;;0.90;99.90;;;;;;5074387;28;20045;-82
2022/03/06 02:09:37;;;;;;;17.38;9.27;;;0.90;99.90;;;;;;5074274;28;20453;-83
2022/03/06 02:14:48;;;;;;;17.08;8.57;;;0.90;99.90;;;;;;5075119;28;20052;-83
2022/03/06 02:17:14;;;;;;;13.35;9.07;;;0.90;99.90;;;;;;5074857;28;20119;-82
2022/03/06 02:19:53;;;;;;;21.13;9.73;;;0.90;99.90;;;;;;5073996;28;20060;-83
2022/03/06 02:22:21;;;;;;;21.70;8.63;;;0.90;99.90;;;;;;5074709;28;20402;-82
2022/03/06 02:24:47;;;;;;;15.73;8.13;;;0.90;99.90;;;;;;5075404;28;20041;-82
2022/03/06 02:27:12;;;;;;;19.10;9.45;;;0.90;99.90;;;;;;5074325;28;20041;-83
2022/03/06 02:29:40;;;;;;;14.27;9.10;;;0.80;99.90;;;;;;5073709;28;20123;-82
2022/03/06 02:32:08;;;;;;;12.70;7.90;;;0.80;99.90;;;;;;5075140;28;20041;-82
2022/03/06 02:34:34;;;;;;;14.15;9.25;;;0.90;99.90;;;;;;5073936;28;20502;-82
2022/03/06 02:37:01;;;;;;;16.80;9.57;;;0.90;99.90;;;;;;5074776;28;20072;-82
2022/03/06 02:39:26;;;;;;;15.10;8.52;;;0.90;99.90;;;;;;5074150;28;20093;-82
2022/03/06 02:41:52;;;;;;;15.73;8.80;;;1.30;99.90;;;;;;5074660;28;20048;-82
2022/03/06 02:44:17;;;;;;;14.48;8.98;;;1.00;99.90;;;;;;5076886;22;20056;-86
2022/03/06 02:46:46;;;;;;;16.42;8.68;;;0.90;99.90;;;;;;5001904;28;20130;-86
2022/03/06 02:49:14;;;;;;;17.33;10.23;;;0.90;99.90;;;;;;5010083;28;20492;-86
2022/03/06 02:51:41;;;;;;;17.95;7.35;;;0.90;99.90;;;;;;5014033;28;20050;-86
2022/03/06 02:54:07;;;;;;;14.68;8.05;;;0.90;99.90;;;;;;4996136;28;20057;-86
2022/03/06 02:56:34;;;;;;;17.83;9.07;;;0.90;99.90;;;;;;4995961;28;20042;-86
2022/03/06 02:58:59;;;;;;;17.38;8.85;;;0.90;99.90;;;;;;4994535;28;20130;-85
2022/03/06 03:01:25;;;;;;;17.02;8.63;;;0.80;99.90;;;;;;4979360;28;20121;-86
2022/03/06 03:03:51;;;;;;;18.92;8.45;;;0.80;99.90;;;;;;5000119;28;20049;-85
2022/03/06 03:06:17;;;;;;;15.38;7.45;;;0.80;99.90;;;;;;4988701;28;20393;-86
2022/03/06 03:08:42;;;;;;;14.35;6.97;;;0.70;99.90;;;;;;5014056;28;20038;-86
2022/03/06 03:11:08;;;;;;;16.13;6.55;;;0.80;99.90;;;;;;5013797;28;20072;-86
2022/03/06 03:13:34;;;;;;;15.40;7.63;;;0.70;99.90;;;;;;5013861;28;20034;-86
2022/03/06 03:15:59;;;;;;;13.68;7.30;;;0.70;99.90;;;;;;4996016;28;20050;-86
2022/03/06 03:18:25;;;;;;;14.63;6.78;;;0.70;99.90;;;;;;5000832;28;20527;-86
2022/03/06 03:20:50;;;;;;;12.15;5.40;;;0.60;99.90;;;;;;4994180;28;20508;-85
2022/03/06 03:23:16;;;;;;;14.45;6.03;;;0.60;99.90;;;;;;4994301;28;20540;-86
2022/03/06 03:25:42;;;;;;;9.70;4.82;;;0.60;99.90;;;;;;4996264;28;20050;-86
2022/03/06 03:28:07;;;;;;;10.65;5.03;;;0.60;99.90;;;;;;4995444;28;20046;-86
2022/03/06 03:30:33;;;;;;;9.43;4.75;;;0.60;99.90;;;;;;5013452;28;20037;-85
2022/03/06 03:32:58;;;;;;;9.30;5.15;;;0.50;99.90;;;;;;5013289;28;20238;-85
2022/03/06 03:35:24;;;;;;;12.10;5.50;;;0.40;99.90;;;;;;4995883;28;20050;-86
2022/03/06 03:37:50;;;;;;;13.05;5.97;;;0.30;99.90;;;;;;4995645;28;20042;-86
2022/03/06 03:40:15;;;;;;;9.98;5.47;;;0.20;99.90;;;;;;5013238;28;20124;-86
2022/03/06 03:42:41;;;;;;;12.88;6.43;;;0.20;99.90;;;;;;5013024;28;20500;-86
2022/03/06 03:45:07;;;;;;;12.77;5.57;;;0.30;99.90;;;;;;4995693;28;20053;-86
2022/03/06 03:47:33;;;;;;;14.75;5.55;;;0.30;99.90;;;;;;4995754;28;20407;-86
2022/03/06 03:49:59;;;;;;;12.00;6.30;;;0.30;99.90;;;;;;4995537;28;20057;-86
2022/03/06 03:52:24;;;;;;;10.98;5.38;;;0.30;99.90;;;;;;5011861;28;20042;-86
2022/03/06 03:54:50;;;;;;;11.07;5.22;;;0.30;99.90;;;;;;4995228;28;20484;-86
2022/03/06 03:57:16;;;;;;;12.25;6.13;;;0.30;99.90;;;;;;5012795;28;20500;-86
2022/03/06 03:59:42;;;;;;;13.38;6.78;;;0.20;99.90;;;;;;5012126;28;20042;-86
2022/03/06 04:02:08;;;;;;;21.45;7.90;;;0.20;99.90;;;;;;4995498;28;20088;-85
2022/03/06 04:04:34;;;;;;;14.52;6.60;;;0.10;99.90;;;;;;5012994;28;20065;-86
2022/03/06 04:07:00;;;;;;;11.65;7.25;;;0.10;99.90;;;;;;5012988;28;20100;-86
2022/03/06 04:09:25;;;;;;;11.50;6.00;;;0.00;99.90;;;;;;5012838;28;20168;-86
2022/03/06 04:11:51;;;;;;;13.57;7.10;;;0.00;99.90;;;;;;5013118;28;20405;-85
2022/03/06 04:14:17;;;;;;;11.32;5.43;;;0.00;99.90;;;;;;4979398;28;20559;-86
2022/03/06 04:16:42;;;;;;;14.88;7.05;;;0.00;99.90;;;;;;5012861;28;20404;-85
2022/03/06 04:19:09;;;;;;;14.38;6.30;;;-0.10;99.90;;;;;;5013047;28;20485;-86
2022/03/06 04:21:35;;;;;;;9.18;5.80;;;-0.10;99.90;;;;;;5012837;28;20104;-86
2022/03/06 04:24:01;;;;;;;12.68;6.15;;;0.00;99.90;;;;;;4995343;28;20511;-86
2022/03/06 04:26:27;;;;;;;9.38;5.70;;;0.00;99.90;;;;;;4995134;28;20046;-86
2022/03/06 04:28:52;;;;;;;9.38;5.28;;;0.00;99.90;;;;;;5012745;28;20510;-86
2022/03/06 04:31:18;;;;;;;13.10;5.60;;;0.00;99.90;;;;;;4995186;28;20050;-85
2022/03/06 04:33:44;;;;;;;15.85;6.75;;;0.00;99.90;;;;;;4995280;28;20456;-86
2022/03/06 04:36:10;;;;;;;10.65;4.65;;;0.00;99.90;;;;;;4994982;28;20578;-85
2022/03/06 04:38:36;;;;;;;8.93;5.35;;;0.00;99.90;;;;;;5012379;28;20079;-86
2022/03/06 04:41:02;;;;;;;12.10;5.47;;;-0.10;99.90;;;;;;4995060;28;20113;-85
2022/03/06 04:43:28;;;;;;;12.40;5.63;;;-0.30;99.90;;;;;;5012595;28;20061;-86
2022/03/06 04:45:53;;;;;;;9.38;5.38;;;-0.30;99.90;;;;;;4995000;28;20046;-86
2022/03/06 04:48:19;;;;;;;10.80;4.70;;;-0.30;99.90;;;;;;4995256;28;20050;-86
2022/03/06 04:50:44;;;;;;;9.65;5.45;;;-0.40;99.90;;;;;;5012306;28;20100;-86
2022/03/06 04:53:10;;;;;;;13.85;6.30;;;-0.50;99.90;;;;;;5012752;28;20066;-85
2022/03/06 04:55:35;;;;;;;14.32;5.72;;;-0.60;99.90;;;;;;5012496;28;20052;-86
2022/03/06 04:58:01;;;;;;;26.70;6.35;;;-0.70;99.90;;;;;;5012508;28;20050;-86
2022/03/06 05:00:27;;;;;;;14.00;5.57;;;-0.60;99.90;;;;;;4994885;28;20091;-85
2022/03/06 05:02:53;;;;;;;11.57;5.65;;;-0.70;99.90;;;;;;5012420;28;20056;-85
2022/03/06 05:05:19;;;;;;;12.70;5.53;;;-0.80;99.90;;;;;;5012518;28;20527;-86
2022/03/06 05:07:44;;;;;;;12.25;5.82;;;-0.70;99.90;;;;;;5012720;28;20050;-86
2022/03/06 05:10:10;;;;;;;12.30;6.68;;;-0.60;99.90;;;;;;4997101;28;20508;-86
2022/03/06 05:12:38;;;;;;;9.85;4.43;;;-0.60;99.90;;;;;;4998359;28;20045;-86
2022/03/06 05:15:04;;;;;;;12.68;5.43;;;-0.50;99.90;;;;;;4998492;28;20050;-85
2022/03/06 05:17:30;;;;;;;14.70;5.60;;;-0.50;99.90;;;;;;5016046;28;20041;-86
2022/03/06 05:19:55;;;;;;;11.10;5.38;;;-0.60;99.90;;;;;;5016163;28;20476;-86
2022/03/06 05:22:21;;;;;;;7.95;4.90;;;-0.50;99.90;;;;;;5015876;28;20120;-86
2022/03/06 05:24:46;;;;;;;11.23;5.35;;;-0.50;99.90;;;;;;5015612;28;20061;-85
2022/03/06 05:27:12;;;;;;;16.27;5.35;;;-0.50;99.90;;;;;;5015880;28;20042;-86
2022/03/06 05:29:37;;;;;;;15.45;5.40;;;-0.60;99.90;;;;;;5015705;28;20053;-86
2022/03/06 05:32:03;;;;;;;11.63;5.70;;;-0.60;99.90;;;;;;5015853;28;20045;-86
2022/03/06 05:34:29;;;;;;;9.60;4.72;;;-0.60;99.90;;;;;;5015834;28;20053;-86
2022/03/06 05:36:55;;;;;;;9.85;5.13;;;-0.70;99.90;;;;;;5015535;28;20038;-86
2022/03/06 05:39:21;;;;;;;9.85;4.38;;;-0.90;99.90;;;;;;5015547;28;20037;-86
2022/03/06 05:41:47;;;;;;;10.88;5.97;;;-1.00;99.90;;;;;;5015598;28;20123;-86
2022/03/06 05:44:12;;;;;;;11.52;5.00;;;-1.10;99.90;;;;;;5015155;28;20104;-86
2022/03/06 05:46:38;;;;;;;9.77;5.35;;;-1.20;99.90;;;;;;5015448;28;20053;-86
2022/03/06 05:49:12;;;;;;;11.43;4.63;;;-1.20;99.90;;;;;;4997651;28;20054;-86
2022/03/06 05:51:39;;;;;;;12.82;6.05;;;-1.20;99.90;;;;;;4999467;28;20117;-86
2022/03/06 05:54:04;;;;;;;12.68;6.07;;;-1.20;99.90;;;;;;5017314;28;20120;-85
2022/03/06 05:56:30;;;;;;;16.70;6.10;;;-1.20;99.90;;;;;;5033675;28;20563;-85
2022/03/06 05:58:55;;;;;;;12.18;5.35;;;-1.30;99.90;;;;;;5015166;28;20046;-86
2022/03/06 06:01:21;;;;;;;11.57;4.35;;;-1.30;99.90;;;;;;5015012;28;20401;-86
2022/03/06 06:03:46;;;;;;;15.00;6.22;;;-1.40;99.90;;;;;;5015134;28;20512;-85
2022/03/06 06:06:12;;;;;;;14.10;5.50;;;-1.40;99.90;;;;;;4997386;28;20500;-86
2022/03/06 06:08:38;;;;;;;11.55;6.47;;;-1.40;99.90;;;;;;5015352;28;20046;-86
2022/03/06 06:11:03;;;;;;;11.15;6.13;;;-1.40;99.90;;;;;;5017747;28;20081;-86
2022/03/06 06:13:29;;;;;;;15.07;5.22;;;-1.40;99.90;;;;;;5012421;28;20115;-86
2022/03/06 06:15:55;;;;;;;18.88;6.05;;;-1.30;99.90;;;;;;5015073;28;20180;-86
2022/03/06 06:18:21;;;;;;;13.93;5.38;;;-1.30;99.90;;;;;;5014787;28;20508;-86
2022/03/06 06:20:47;;;;;;;11.30;5.30;;;-1.30;99.90;;;;;;4997339;28;20052;-85
2022/03/06 06:23:12;;;;;;;13.10;5.43;;;-1.30;99.90;;;;;;5014950;28;20049;-86
2022/03/06 06:25:38;;;;;;;13.48;5.47;;;-1.30;99.90;;;;;;5014786;28;20075;-85
2022/03/06 06:28:03;;;;;;;14.98;5.88;;;-1.30;99.90;;;;;;5014598;28;20449;-85
2022/03/06 06:30:29;;;;;;;16.63;5.18;;;-1.20;99.90;;;;;;5014913;28;20445;-85
2022/03/06 06:32:54;;;;;;;9.80;4.40;;;-1.30;99.90;;;;;;5014613;28;20065;-86
2022/03/06 06:35:20;;;;;;;11.65;5.05;;;-1.20;99.90;;;;;;5014184;28;20037;-86
2022/03/06 06:37:46;;;;;;;10.40;5.03;;;-1.10;99.90;;;;;;5014570;28;20049;-86
2022/03/06 06:40:12;;;;;;;8.18;4.72;;;-1.20;99.90;;;;;;4997008;28;20037;-86
2022/03/06 06:42:37;;;;;;;8.45;5.82;;;-1.20;99.90;;;;;;5014177;28;20034;-86
2022/03/06 06:45:03;;;;;;;10.35;5.53;;;-1.20;99.90;;;;;;4996892;28;20037;-86
2022/03/06 06:47:29;;;;;;;10.05;4.90;;;-1.20;99.90;;;;;;4996787;28;20129;-86
2022/03/06 06:49:54;;;;;;;12.23;5.18;;;-1.20;99.90;;;;;;4996876;28;20066;-85
2022/03/06 06:52:20;;;;;;;9.30;4.93;;;-1.30;99.90;;;;;;4997283;28;20041;-86
2022/03/06 06:54:45;;;;;;;9.60;4.65;;;-1.30;99.90;;;;;;4996962;28;20046;-85
2022/03/06 06:57:11;;;;;;;8.88;4.80;;;-1.40;99.90;;;;;;4996623;28;20042;-85
2022/03/06 06:59:36;;;;;;;8.75;5.00;;;-1.50;99.90;;;;;;5014151;28;20041;-86
2022/03/06 07:02:02;;;;;;;11.00;5.25;;;-1.40;99.90;;;;;;4996670;28;20046;-85
2022/03/06 07:04:28;;;;;;;11.13;4.60;;;-1.40;99.90;;;;;;4996460;28;20053;-86
2022/03/06 07:06:53;;;;;;;9.63;5.97;;;-1.40;99.90;;;;;;5014556;28;20046;-86
2022/03/06 07:09:19;;;;;;;10.30;5.50;;;-1.30;99.90;;;;;;5014575;28;20054;-86
2022/03/06 07:11:44;;;;;;;8.88;4.65;;;-1.20;99.90;;;;;;4996954;28;20492;-86
2022/03/06 07:14:10;;;;;;;17.80;5.57;;;-1.10;99.90;;;;;;4996674;28;20128;-86
2022/03/06 07:16:35;;;;;;;7.45;4.20;;;-0.80;99.90;;;;;;4996271;28;20072;-86
2022/03/06 07:19:01;;;;;;;11.38;4.82;;;-0.60;99.90;;;;;;5013987;28;20053;-85
2022/03/06 07:21:27;;;;;;;10.88;3.72;;;-0.40;99.90;;;;;;5013876;28;20046;-86
2022/03/06 07:23:53;;;;;;;12.32;5.07;;;-0.30;99.90;;;;;;5013320;28;20056;-86
2022/03/06 07:26:18;;;;;;;8.60;4.82;;;-0.20;99.90;;;;;;5013765;28;20128;-86
2022/03/06 07:28:44;;;;;;;7.75;4.45;;;-0.20;99.90;;;;;;5013769;28;20049;-86
2022/03/06 07:31:10;;;;;;;10.57;4.55;;;-0.20;99.90;;;;;;5013672;28;20034;-86
2022/03/06 07:33:35;;;;;;;8.82;4.15;;;-0.10;99.90;;;;;;5012579;28;20044;-85
2022/03/06 07:36:01;;;;;;;6.50;3.75;;;0.00;99.90;;;;;;5013407;28;20045;-85
2022/03/06 07:38:26;;;;;;;7.07;4.30;;;0.00;99.90;;;;;;5013381;28;20045;-85
2022/03/06 07:40:52;;;;;;;6.93;3.28;;;0.10;99.90;;;;;;5013076;28;20453;-85
2022/03/06 07:43:17;;;;;;;7.13;3.45;;;0.10;99.90;;;;;;5013018;28;20137;-85
2022/03/06 07:45:43;;;;;;;9.88;3.85;;;0.30;99.90;;;;;;5018184;28;20420;-85
2022/03/06 07:48:08;;;;;;;7.28;2.88;;;0.30;99.90;;;;;;5014918;28;20405;-85
2022/03/06 07:50:34;;;;;;;5.95;2.53;;;0.40;99.90;;;;;;5014721;28;20053;-85
2022/03/06 07:53:00;;;;;;;5.00;2.58;;;1.50;99.90;;;;;;5014995;28;20436;-84
2022/03/06 07:55:25;;;;;;;7.93;3.25;;;0.50;99.90;;;;;;5017330;28;20042;-85
2022/03/06 07:57:51;;;;;;;9.15;2.97;;;0.70;99.90;;;;;;5020544;28;20049;-85
2022/03/06 08:00:17;;;;;;;7.65;3.25;;;0.70;99.90;;;;;;5031363;28;20068;-84
2022/03/06 08:02:42;;;;;;;5.50;2.42;;;0.70;99.90;;;;;;5020404;28;20046;-85
2022/03/06 08:05:08;;;;;;;7.03;2.85;;;0.80;99.90;;;;;;5012595;28;20042;-84
2022/03/06 08:07:35;;;;;;;6.68;3.45;;;0.80;99.90;;;;;;4993840;28;20045;-84
2022/03/06 08:10:04;;;;;;;6.55;3.80;;;0.90;99.90;;;;;;4993616;28;20050;-84
2022/03/06 08:12:29;;;;;;;7.45;3.15;;;0.80;99.90;;;;;;5000621;28;20048;-84
2022/03/06 08:14:55;;;;;;;5.63;2.65;;;0.90;99.90;;;;;;5000966;28;20050;-85
2022/03/06 08:17:20;;;;;;;5.20;2.42;;;1.00;99.90;;;;;;5008826;28;20594;-83
2022/03/06 08:19:46;;;;;;;5.03;2.70;;;1.00;99.90;;;;;;5019448;28;20049;-84
2022/03/06 08:22:12;;;;;;;6.28;2.88;;;1.20;99.90;;;;;;5006295;28;20043;-85
2022/03/06 08:24:38;;;;;;;5.30;2.45;;;1.20;99.90;;;;;;5024170;28;20481;-84
2022/03/06 08:27:04;;;;;;;6.57;2.15;;;1.30;99.90;;;;;;5020770;28;20081;-84
2022/03/06 08:29:30;;;;;;;7.10;2.67;;;1.40;99.90;;;;;;5020521;28;20048;-84
2022/03/06 08:31:55;;;;;;;6.88;2.95;;;1.50;99.90;;;;;;5026815;28;20041;-84
2022/03/06 08:34:21;;;;;;;5.30;2.30;;;1.50;99.90;;;;;;5017676;28;20046;-83
2022/03/06 08:36:46;;;;;;;3.40;1.60;;;1.70;99.90;;;;;;5023432;28;20046;-83
2022/03/06 08:39:12;;;;;;;7.97;2.40;;;1.70;99.90;;;;;;4999485;28;20060;-83
2022/03/06 08:41:37;;;;;;;5.20;2.13;;;1.90;99.90;;;;;;5016534;28;20042;-84
2022/03/06 08:44:03;;;;;;;3.95;2.17;;;1.90;99.90;;;;;;5012569;28;20563;-84
2022/03/06 08:46:29;;;;;;;3.63;1.85;;;2.00;99.90;;;;;;5026727;28;20052;-84
2022/03/06 08:48:54;;;;;;;13.27;2.13;;;2.00;99.90;;;;;;5025625;28;20115;-84
2022/03/06 08:51:20;;;;;;;7.50;1.70;;;2.10;99.90;;;;;;5020295;28;20042;-84
2022/03/06 08:53:45;;;;;;;5.28;2.45;;;2.20;99.90;;;;;;5015729;28;20036;-85
2022/03/06 08:56:11;;;;;;;7.78;2.20;;;2.30;99.90;;;;;;5014604;28;20045;-85
2022/03/06 08:58:37;;;;;;;4.15;1.80;;;2.30;99.90;;;;;;5013810;28;20520;-84
2022/03/06 09:01:02;;;;;;;5.07;1.73;;;2.40;99.90;;;;;;5014935;28;20046;-84
2022/03/06 09:03:28;;;;;;;8.88;2.10;;;2.40;99.90;;;;;;4996651;28;20080;-85
2022/03/06 09:05:54;;;;;;;5.75;1.83;;;2.50;99.90;;;;;;5013567;28;20105;-85
2022/03/06 09:08:19;;;;;;;5.30;2.20;;;2.50;99.90;;;;;;5013771;28;20463;-85
2022/03/06 09:10:45;;;;;;;5.10;1.90;;;2.50;99.90;;;;;;4995726;28;20042;-85
2022/03/06 09:13:10;;;;;;;4.47;1.90;;;2.60;99.90;;;;;;5025615;28;20045;-85
2022/03/06 09:15:37;;;;;;;5.43;2.10;;;2.60;99.90;;;;;;5025675;28;20057;-85
2022/03/06 09:18:04;;;;;;;6.28;1.75;;;2.70;99.90;;;;;;5032903;28;20171;-85
2022/03/06 09:20:30;;;;;;;6.93;2.10;;;2.80;99.90;;;;;;5029578;28;20107;-85
2022/03/06 09:22:56;;;;;;;4.97;1.90;;;2.90;99.90;;;;;;5025683;28;20487;-85
2022/03/06 09:25:21;;;;;;;4.18;1.80;;;2.80;99.90;;;;;;5020934;28;20037;-85
2022/03/06 09:27:47;;;;;;;6.20;2.25;;;2.90;99.90;;;;;;5000965;28;20073;-85
2022/03/06 09:30:13;;;;;;;3.95;1.88;;;2.90;99.90;;;;;;5006031;28;20049;-85
2022/03/06 09:32:39;;;;;;;4.55;1.73;;;2.90;99.90;;;;;;5021382;28;20077;-85
2022/03/06 09:35:06;;;;;;;4.82;2.10;;;3.00;99.90;;;;;;5024253;28;20100;-85
2022/03/06 09:37:33;;;;;;;6.25;2.10;;;3.00;99.90;;;;;;5027769;28;20475;-85
2022/03/06 09:39:59;;;;;;;5.43;2.00;;;3.10;99.90;;;;;;5021794;28;20053;-85
2022/03/06 09:42:25;;;;;;;7.60;2.33;;;3.10;99.90;;;;;;5022925;28;20112;-85
2022/03/06 09:44:50;;;;;;;5.57;1.98;;;3.10;99.90;;;;;;5019169;28;20108;-84
2022/03/06 09:47:17;;;;;;;5.47;2.20;;;3.00;99.90;;;;;;5022652;28;20045;-85
2022/03/06 09:49:44;;;;;;;4.15;1.98;;;3.00;99.90;;;;;;5021662;28;20076;-85
2022/03/06 09:52:10;;;;;;;5.10;1.98;;;3.00;99.90;;;;;;5000477;28;20607;-85
2022/03/06 09:54:36;;;;;;;3.75;2.20;;;3.20;99.90;;;;;;5006819;28;20053;-84
2022/03/06 09:57:02;;;;;;;6.70;2.60;;;3.20;99.90;;;;;;5012669;28;20038;-86
2022/03/06 09:59:27;;;;;;;5.82;1.70;;;3.20;99.90;;;;;;5015793;28;20395;-84
2022/03/06 10:01:53;;;;;;;6.10;2.20;;;3.30;99.90;;;;;;5001358;28;20049;-84
2022/03/06 10:04:25;;;;;;;6.05;2.38;;;3.30;99.90;;;;;;5017182;28;20101;-84
2022/03/06 10:07:13;;;;;;;9.48;2.20;;;3.40;99.90;;;;;;5022944;28;20049;-84
2022/03/06 10:09:50;;;;;;;4.07;2.08;;;3.60;99.90;;;;;;5007362;28;20045;-85
2022/03/06 10:12:30;;;;;;;4.07;2.08;;;3.60;99.90;;;;;;5020270;28;20042;-84
2022/03/06 10:14:57;;;;;;;6.03;2.10;;;3.80;99.90;;;;;;5003023;28;20512;-84
2022/03/06 10:17:25;;;;;;;4.97;2.30;;;4.00;99.90;;;;;;5019673;28;20034;-84
2022/03/06 10:20:01;;;;;;;3.38;2.00;;;4.10;99.90;;;;;;5026751;28;20116;-84
2022/03/06 10:22:30;;;;;;;;;;;4.30;99.90;;;;;;5008626;28;20081;-85
2022/03/06 10:24:57;;;;;;;6.18;2.67;;;5.10;99.90;;;;;;5011334;28;19992;-85
2022/03/06 10:28:02;;;;;;;6.30;2.30;;;4.40;99.90;;;;;;5010702;28;20129;-84
2022/03/06 10:30:41;;;;;;;6.43;2.40;;;4.60;99.90;;;;;;4951202;28;20088;-84
2022/03/06 10:33:17;;;;;;;5.45;2.45;;;4.70;99.90;;;;;;4935636;29;20051;-84
2022/03/06 10:35:46;;;;;;;8.90;2.47;;;4.80;99.90;;;;;;4988555;28;20090;-84
2022/03/06 10:38:19;;;;;;;4.78;1.95;;;4.80;99.90;;;;;;5010921;28;20057;-84
2022/03/06 10:40:44;;;;;;;6.13;1.92;;;5.00;99.90;;;;;;5010555;28;20049;-84
2022/03/06 10:43:22;;;;;;;6.32;2.10;;;5.00;99.90;;;;;;5010891;28;20613;-84
2022/03/06 10:45:49;;;;;;;4.80;1.92;;;5.10;99.90;;;;;;4995206;28;20058;-84
2022/03/06 10:48:15;;;;;;;6.70;1.95;;;5.00;99.90;;;;;;5020098;28;20041;-85
2022/03/06 10:50:41;;;;;;;6.35;1.83;;;5.10;99.90;;;;;;5025270;28;20041;-85
2022/03/06 10:53:37;;;;;;;5.15;2.80;;;5.30;99.90;;;;;;5012233;28;20562;-85
2022/03/06 10:56:15;;;;;;;6.38;2.03;;;5.30;99.90;;;;;;4976282;28;20216;-85
2022/03/06 10:58:43;;;;;;;6.18;2.00;;;5.40;99.90;;;;;;5000990;28;20491;-84
2022/03/06 11:01:10;;;;;;;6.00;2.38;;;5.50;99.90;;;;;;5021833;28;20496;-85
2022/03/06 11:03:36;;;;;;;5.32;2.00;;;5.60;99.90;;;;;;4997144;28;20049;-89
2022/03/06 11:06:03;;;;;;;7.72;3.00;;;5.70;99.90;;;;;;5015114;28;20516;-87
2022/03/06 11:08:31;;;;;;;5.45;2.10;;;5.50;99.90;;;;;;5014639;28;20034;-88
2022/03/06 11:10:57;;;;;;;7.38;2.47;;;5.70;99.90;;;;;;4997470;28;20135;-87
2022/03/06 11:13:24;;;;;;;6.25;1.95;;;5.70;99.90;;;;;;4998983;28;20069;-86
2022/03/06 11:15:50;;;;;;;4.88;2.60;;;5.90;99.90;;;;;;5015715;28;20395;-86
2022/03/06 11:18:16;;;;;;;9.57;2.70;;;5.80;99.90;;;;;;4998415;28;20038;-86
2022/03/06 11:20:44;;;;;;;5.82;2.47;;;6.00;99.90;;;;;;4997665;28;20048;-86
2022/03/06 11:23:26;;;;;;;4.20;1.92;;;6.00;99.90;;;;;;4980994;28;20550;-86
2022/03/06 11:26:14;;;;;;;7.43;2.75;;;6.00;99.90;;;;;;5013937;28;20112;-86
2022/03/06 11:29:07;;;;;;;5.05;2.13;;;6.30;99.90;;;;;;4997342;28;20049;-86
2022/03/06 11:31:44;;;;;;;6.00;1.95;;;6.50;99.90;;;;;;4996457;28;20050;-86
2022/03/06 11:34:11;;;;;;;6.85;2.75;;;6.60;99.90;;;;;;5014328;28;20404;-86
2022/03/06 11:36:46;;;;;;;6.53;2.55;;;6.80;99.70;;;;;;4996753;28;20100;-86
2022/03/06 11:39:29;;;;;;;4.57;2.03;;;6.80;99.90;;;;;;5017436;28;20492;-86
2022/03/06 11:41:59;;;;;;;5.38;2.20;;;6.80;98.80;;;;;;5015204;28;20053;-86
2022/03/06 11:44:39;;;;;;;7.57;1.83;;;6.80;99.40;;;;;;5014874;28;20132;-86
2022/03/06 11:47:24;;;;;;;4.25;1.85;;;6.80;96.80;;;;;;5015841;28;20504;-86
2022/03/06 11:49:54;;;;;;;9.30;3.22;;;7.00;98.40;;;;;;4996051;28;20054;-86
2022/03/06 11:52:27;;;;;;;5.28;2.05;;;7.10;97.10;;;;;;5013711;28;20042;-86
2022/03/06 11:54:53;;;;;;;6.30;2.13;;;6.90;99.90;;;;;;5015826;28;20053;-86
2022/03/06 11:57:36;;;;;;;6.38;2.45;;;6.30;99.90;;;;;;4996600;28;20052;-86
2022/03/06 12:00:24;;;;;;;7.03;2.05;;;6.50;99.90;;;;;;5014073;28;20497;-86
2022/03/06 12:02:58;;;;;;;6.15;2.55;;;6.90;99.90;;;;;;5016382;28;20053;-87
2022/03/06 12:05:52;;;;;;;9.90;2.92;;;7.00;99.90;;;;;;4982906;28;20180;-87
2022/03/06 12:08:22;;;;;;;;;;;6.60;99.90;;;;;;4968960;28;20060;-87
2022/03/06 12:10:48;;;;;;;5.57;2.65;;;6.70;99.90;;;;;;4997231;28;19984;-88
2022/03/06 12:13:21;;;;;;;8.30;2.13;;;6.30;99.90;;;;;;5014462;28;20498;-87
2022/03/06 12:16:05;;;;;;;7.70;2.53;;;6.60;99.90;;;;;;5000258;28;20095;-87
2022/03/06 12:18:31;;;;;;;4.80;2.58;;;7.00;98.70;;;;;;5003437;28;20057;-87
2022/03/06 12:20:57;;;;;;;7.78;1.85;;;7.30;99.90;;;;;;5025099;28;20080;-87
2022/03/06 12:23:28;;;;;;;4.80;2.05;;;7.00;95.20;;;;;;5025483;28;20081;-87
2022/03/06 12:25:56;;;;;;;6.68;2.10;;;6.80;99.90;;;;;;5028695;28;20037;-87
2022/03/06 12:28:25;;;;;;;4.07;2.03;;;6.70;99.90;;;;;;5028420;28;20037;-87
2022/03/06 12:30:52;;;;;;;3.50;1.90;;;6.60;99.90;;;;;;5028532;28;20045;-87
2022/03/06 12:33:30;;;;;;;8.73;2.58;;;6.50;99.90;;;;;;5027474;28;20042;-87
2022/03/06 12:36:13;;;;;;;4.53;2.38;;;6.50;99.90;;;;;;5022513;28;20050;-87
2022/03/06 12:38:39;;;;;;;6.60;2.53;;;6.30;99.90;;;;;;4998813;28;20053;-88
2022/03/06 12:41:06;;;;;;;6.68;2.58;;;6.10;99.90;;;;;;5016053;28;20774;-87
2022/03/06 12:43:32;;;;;;;7.45;2.30;;;6.00;99.90;;;;;;5016894;28;20138;-87
2022/03/06 12:46:01;;;;;;;9.93;2.55;;;6.20;99.90;;;;;;5002962;28;20120;-87
2022/03/06 12:48:28;;;;;;;6.80;2.45;;;6.60;99.90;;;;;;5026552;28;20124;-87
2022/03/06 12:50:54;;;;;;;8.05;2.47;;;6.90;99.90;;;;;;5008443;28;20049;-87